sensor_id;sensor_type;location;lat;lon;timestamp;pressure;altitude;pressure_sealevel;temperature;humidity
22572;BME280;11452;53.368;14.658;2023-05-21T12:16:53;101511.33;;;27.57;36.59
22572;BME280;11452;53.368;14.658;2023-05-21T12:22:01;101490.72;;;27.57;36.83
22572;BME280;11452;53.368;14.658;2023-05-21T12:27:07;101508.94;;;27.85;36.93
22572;BME280;11452;53.368;14.658;2023-05-21T12:32:14;101505.56;;;28.06;36.99
22572;BME280;11452;53.368;14.658;2023-05-21T12:37:21;101501.59;;;28.09;36.31
22572;BME280;11452;53.368;14.658;2023-05-21T12:42:30;101499.00;;;28.11;36.18
22572;BME280;11452;53.368;14.658;2023-05-21T12:47:39;101497.77;;;28.18;35.94
22572;BME280;11452;53.368;14.658;2023-05-21T12:52:45;101487.34;;;28.36;35.52
22572;BME280;11452;53.368;14.658;2023-05-21T12:58:06;101484.11;;;28.51;35.61
22572;BME280;11452;53.368;14.658;2023-05-21T13:03:09;101489.59;;;28.74;35.26
22572;BME280;11452;53.368;14.658;2023-05-21T13:08:15;101477.02;;;28.76;34.69
22572;BME280;11452;53.368;14.658;2023-05-21T13:13:21;101468.09;;;28.74;34.25
22572;BME280;11452;53.368;14.658;2023-05-21T13:18:26;101473.81;;;28.68;34.07
22572;BME280;11452;53.368;14.658;2023-05-21T13:23:33;101469.12;;;28.73;34.09
22572;BME280;11452;53.368;14.658;2023-05-21T13:28:39;101465.38;;;28.70;34.11
22572;BME280;11452;53.368;14.658;2023-05-21T13:33:46;101455.27;;;28.85;34.44
22572;BME280;11452;53.368;14.658;2023-05-21T13:38:52;101454.89;;;29.03;34.29
22572;BME280;11452;53.368;14.658;2023-05-21T13:43:59;101447.48;;;29.18;34.17
22572;BME280;11452;53.368;14.658;2023-05-21T13:49:05;101439.03;;;29.19;33.76
22572;BME280;11452;53.368;14.658;2023-05-21T13:54:10;101445.52;;;29.37;33.96
22572;BME280;11452;53.368;14.658;2023-05-21T13:59:17;101431.49;;;29.47;33.74
22572;BME280;11452;53.368;14.658;2023-05-21T14:04:23;101425.03;;;29.65;33.58
22572;BME280;11452;53.368;14.658;2023-05-21T14:09:29;101434.69;;;29.50;33.09
22572;BME280;11452;53.368;14.658;2023-05-21T14:14:35;101431.29;;;29.19;32.57
22572;BME280;11452;53.368;14.658;2023-05-21T14:19:41;101429.22;;;29.06;32.85
22572;BME280;11452;53.368;14.658;2023-05-21T14:24:47;101421.80;;;29.21;32.64
22572;BME280;11452;53.368;14.658;2023-05-21T14:29:53;101418.33;;;29.23;32.47
22572;BME280;11452;53.368;14.658;2023-05-21T14:34:58;101416.95;;;29.23;32.45
22572;BME280;11452;53.368;14.658;2023-05-21T14:40:05;101420.33;;;29.29;32.26
22572;BME280;11452;53.368;14.658;2023-05-21T14:45:11;101425.26;;;29.19;31.82
22572;BME280;11452;53.368;14.658;2023-05-21T14:50:19;101416.77;;;29.40;31.85
22572;BME280;11452;53.368;14.658;2023-05-21T14:55:25;101425.80;;;29.70;31.65
22572;BME280;11452;53.368;14.658;2023-05-21T15:00:32;101420.63;;;29.60;30.64
22572;BME280;11452;53.368;14.658;2023-05-21T15:05:38;101415.86;;;29.43;31.00
22572;BME280;11452;53.368;14.658;2023-05-21T15:10:44;101414.30;;;29.45;30.57
22572;BME280;11452;53.368;14.658;2023-05-21T15:15:50;101415.20;;;29.26;30.17
22572;BME280;11452;53.368;14.658;2023-05-21T15:20:56;101408.88;;;29.22;30.22
22572;BME280;11452;53.368;14.658;2023-05-21T15:26:02;101413.16;;;29.39;30.28
22572;BME280;11452;53.368;14.658;2023-05-21T15:31:07;101405.57;;;29.37;30.32
22572;BME280;11452;53.368;14.658;2023-05-21T15:36:13;101410.36;;;29.54;30.23
22572;BME280;11452;53.368;14.658;2023-05-21T15:41:20;101407.33;;;29.95;30.61
22572;BME280;11452;53.368;14.658;2023-05-21T15:46:26;101410.09;;;30.77;31.40
22572;BME280;11452;53.368;14.658;2023-05-21T15:51:31;101404.80;;;31.88;30.77
22572;BME280;11452;53.368;14.658;2023-05-21T15:56:37;101412.27;;;32.07;28.44
22572;BME280;11452;53.368;14.658;2023-05-21T16:01:44;101410.59;;;32.32;27.65
22572;BME280;11452;53.368;14.658;2023-05-21T16:06:50;101402.61;;;32.80;27.61
22572;BME280;11452;53.368;14.658;2023-05-21T16:11:56;101403.84;;;32.97;26.68
22572;BME280;11452;53.368;14.658;2023-05-21T16:17:01;101387.66;;;34.05;27.04
22572;BME280;11452;53.368;14.658;2023-05-21T16:22:07;101392.87;;;34.20;25.02
22572;BME280;11452;53.368;14.658;2023-05-21T16:27:14;101393.91;;;34.26;24.84
22572;BME280;11452;53.368;14.658;2023-05-21T16:32:20;101398.23;;;33.90;24.45
22572;BME280;11452;53.368;14.658;2023-05-21T16:37:26;101391.31;;;34.15;25.03
22572;BME280;11452;53.368;14.658;2023-05-21T16:42:31;101390.69;;;34.79;24.54
22572;BME280;11452;53.368;14.658;2023-05-21T16:47:37;101386.68;;;34.09;23.81
22572;BME280;11452;53.368;14.658;2023-05-21T16:52:43;101386.95;;;33.41;24.22
22572;BME280;11452;53.368;14.658;2023-05-21T16:57:49;101382.48;;;32.75;24.34
22572;BME280;11452;53.368;14.658;2023-05-21T17:02:55;101380.09;;;32.85;25.48
22572;BME280;11452;53.368;14.658;2023-05-21T17:08:01;101389.61;;;32.80;25.09
22572;BME280;11452;53.368;14.658;2023-05-21T17:13:07;101386.28;;;32.67;25.22
22572;BME280;11452;53.368;14.658;2023-05-21T17:18:14;101392.05;;;32.07;25.34
22572;BME280;11452;53.368;14.658;2023-05-21T17:23:20;101393.91;;;31.49;26.10
22572;BME280;11452;53.368;14.658;2023-05-21T17:28:26;101382.13;;;31.10;26.65
22572;BME280;11452;53.368;14.658;2023-05-21T17:33:32;101381.45;;;30.84;27.01
22572;BME280;11452;53.368;14.658;2023-05-21T17:38:37;101376.53;;;30.62;27.26
22572;BME280;11452;53.368;14.658;2023-05-21T17:43:43;101370.94;;;30.28;27.66
22572;BME280;11452;53.368;14.658;2023-05-21T17:48:49;101376.81;;;29.86;27.96
22572;BME280;11452;53.368;14.658;2023-05-21T17:53:55;101367.73;;;29.50;28.68
22572;BME280;11452;53.368;14.658;2023-05-21T17:59:01;101368.30;;;29.05;29.25
22572;BME280;11452;53.368;14.658;2023-05-21T18:04:07;101378.23;;;28.77;29.57
22572;BME280;11452;53.368;14.658;2023-05-21T18:09:14;101376.14;;;28.49;30.22
22572;BME280;11452;53.368;14.658;2023-05-21T18:14:20;101379.83;;;28.23;30.87
22572;BME280;11452;53.368;14.658;2023-05-21T18:19:25;101392.13;;;27.85;31.21
22572;BME280;11452;53.368;14.658;2023-05-21T18:24:31;101396.89;;;27.34;32.24
22572;BME280;11452;53.368;14.658;2023-05-21T18:29:37;101394.08;;;27.11;33.07
22572;BME280;11452;53.368;14.658;2023-05-21T18:34:43;101392.95;;;26.89;33.50
22572;BME280;11452;53.368;14.658;2023-05-21T18:39:49;101405.87;;;26.56;34.22
22572;BME280;11452;53.368;14.658;2023-05-21T18:44:54;101402.48;;;26.30;34.76
22572;BME280;11452;53.368;14.658;2023-05-21T18:50:00;101411.86;;;25.99;35.39
22572;BME280;11452;53.368;14.658;2023-05-21T18:55:08;101416.60;;;25.64;36.02
22572;BME280;11452;53.368;14.658;2023-05-21T19:00:14;101413.44;;;25.39;36.73
22572;BME280;11452;53.368;14.658;2023-05-21T19:05:20;101423.09;;;25.17;37.17
22572;BME280;11452;53.368;14.658;2023-05-21T19:10:26;101419.24;;;24.98;37.66
22572;BME280;11452;53.368;14.658;2023-05-21T19:15:33;101417.22;;;24.78;38.03
22572;BME280;11452;53.368;14.658;2023-05-21T19:20:39;101427.86;;;24.59;38.67
22572;BME280;11452;53.368;14.658;2023-05-21T19:25:45;101435.44;;;24.43;39.11
22572;BME280;11452;53.368;14.658;2023-05-21T19:30:50;101444.69;;;24.25;39.43
22572;BME280;11452;53.368;14.658;2023-05-21T19:35:56;101444.02;;;24.13;39.68
22572;BME280;11452;53.368;14.658;2023-05-21T19:41:02;101443.41;;;24.01;39.89
22572;BME280;11452;53.368;14.658;2023-05-21T19:46:08;101439.86;;;23.87;40.10
22572;BME280;11452;53.368;14.658;2023-05-21T19:51:15;101444.14;;;23.72;40.40
22572;BME280;11452;53.368;14.658;2023-05-21T19:56:21;101443.94;;;23.69;40.50
22572;BME280;11452;53.368;14.658;2023-05-21T20:01:27;101445.33;;;23.56;40.67
22572;BME280;11452;53.368;14.658;2023-05-21T20:06:34;101446.20;;;23.46;40.75
22572;BME280;11452;53.368;14.658;2023-05-21T20:11:40;101437.16;;;23.32;40.88
22572;BME280;11452;53.368;14.658;2023-05-21T20:16:46;101437.31;;;23.17;41.11
22572;BME280;11452;53.368;14.658;2023-05-21T20:21:53;101437.28;;;23.03;41.15
22572;BME280;11452;53.368;14.658;2023-05-21T20:26:58;101432.23;;;22.95;41.27
22572;BME280;11452;53.368;14.658;2023-05-21T20:32:16;101433.62;;;22.85;41.23
22572;BME280;11452;53.368;14.658;2023-05-21T20:37:21;101431.05;;;22.74;41.33
22572;BME280;11452;53.368;14.658;2023-05-21T20:42:29;101431.74;;;22.62;41.37
22572;BME280;11452;53.368;14.658;2023-05-21T20:47:36;101433.03;;;22.58;41.44
22572;BME280;11452;53.368;14.658;2023-05-21T20:52:42;101435.83;;;22.53;41.37
22572;BME280;11452;53.368;14.658;2023-05-21T20:57:49;101437.27;;;22.47;41.40
22572;BME280;11452;53.368;14.658;2023-05-21T21:02:55;101445.97;;;22.37;41.39
22572;BME280;11452;53.368;14.658;2023-05-21T21:08:03;101453.42;;;22.35;41.49
22572;BME280;11452;53.368;14.658;2023-05-21T21:13:09;101450.52;;;22.23;41.57
22572;BME280;11452;53.368;14.658;2023-05-21T21:18:14;101441.41;;;22.18;41.60
22572;BME280;11452;53.368;14.658;2023-05-21T21:23:22;101438.88;;;22.11;41.69
22572;BME280;11452;53.368;14.658;2023-05-21T21:28:31;101437.78;;;21.98;41.70
22572;BME280;11452;53.368;14.658;2023-05-21T21:33:37;101445.10;;;21.88;41.78
22572;BME280;11452;53.368;14.658;2023-05-21T21:38:43;101446.52;;;21.83;41.85
22572;BME280;11452;53.368;14.658;2023-05-21T21:43:48;101451.58;;;21.72;41.91
22572;BME280;11452;53.368;14.658;2023-05-21T21:48:55;101457.33;;;21.69;41.95
22572;BME280;11452;53.368;14.658;2023-05-21T21:54:01;101451.93;;;21.63;42.04
22572;BME280;11452;53.368;14.658;2023-05-21T21:59:07;101452.75;;;21.54;42.01
22572;BME280;11452;53.368;14.658;2023-05-21T22:04:12;101454.84;;;21.56;42.15
22572;BME280;11452;53.368;14.658;2023-05-21T22:09:18;101444.45;;;21.46;42.16
22572;BME280;11452;53.368;14.658;2023-05-21T22:14:26;101443.27;;;21.39;42.11
22572;BME280;11452;53.368;14.658;2023-05-21T22:19:31;101451.70;;;21.36;42.16
22572;BME280;11452;53.368;14.658;2023-05-21T22:24:37;101445.25;;;21.27;42.26
22572;BME280;11452;53.368;14.658;2023-05-21T22:29:43;101442.30;;;21.25;42.18
22572;BME280;11452;53.368;14.658;2023-05-21T22:34:48;101438.58;;;21.11;42.08
22572;BME280;11452;53.368;14.658;2023-05-21T22:39:54;101429.59;;;21.04;42.24
22572;BME280;11452;53.368;14.658;2023-05-21T22:45:00;101430.63;;;20.98;42.29
22572;BME280;11452;53.368;14.658;2023-05-21T22:50:07;101428.41;;;20.97;42.24
22572;BME280;11452;53.368;14.658;2023-05-21T22:55:14;101427.84;;;20.94;42.29
22572;BME280;11452;53.368;14.658;2023-05-21T23:00:20;101428.88;;;20.87;42.28
22572;BME280;11452;53.368;14.658;2023-05-21T23:05:26;101432.00;;;20.83;42.30
22572;BME280;11452;53.368;14.658;2023-05-21T23:10:33;101433.91;;;20.77;42.44
22572;BME280;11452;53.368;14.658;2023-05-21T23:15:39;101428.75;;;20.73;42.50
22572;BME280;11452;53.368;14.658;2023-05-21T23:20:46;101428.28;;;20.68;42.50
22572;BME280;11452;53.368;14.658;2023-05-21T23:25:52;101429.59;;;20.59;42.65
22572;BME280;11452;53.368;14.658;2023-05-21T23:30:59;101425.69;;;20.52;42.77
22572;BME280;11452;53.368;14.658;2023-05-21T23:36:06;101423.25;;;20.43;42.79
22572;BME280;11452;53.368;14.658;2023-05-21T23:41:12;101423.17;;;20.33;43.06
22572;BME280;11452;53.368;14.658;2023-05-21T23:46:17;101423.33;;;20.26;43.16
22572;BME280;11452;53.368;14.658;2023-05-21T23:51:23;101422.28;;;20.18;43.33
22572;BME280;11452;53.368;14.658;2023-05-21T23:56:29;101422.30;;;20.12;43.47
